Time;durP1;ratioP1;P1;durP2;ratioP2;P2;SDS_P1;SDS_P2;PMS_P1;PMS_P2;Temp;Humidity;BMP_temperature;BMP_pressure;BME280_temperature;BME280_humidity;BME280_pressure;Samples;Min_cycle;Max_cycle;Signal;HPM_P1;HPM_P2
2021/12/28 00:01:18;;;;;;;55.83;32.07;;;-1.20;99.90;;;;;;5076677;28;20925;-70
2021/12/28 00:03:46;;;;;;;59.17;32.63;;;-1.20;99.90;;;;;;5076317;28;20917;-70
2021/12/28 00:06:15;;;;;;;54.53;30.43;;;-1.30;99.90;;;;;;5076454;28;20790;-70
2021/12/28 00:08:43;;;;;;;60.83;32.90;;;-1.30;99.90;;;;;;5076524;28;20482;-70
2021/12/28 00:11:10;;;;;;;62.30;32.30;;;-1.30;99.90;;;;;;5076314;28;20462;-71
2021/12/28 00:13:38;;;;;;;63.43;33.03;;;-1.30;99.90;;;;;;5076474;28;20580;-71
2021/12/28 00:16:31;;;;;;;62.73;34.10;;;-1.30;99.90;;;;;;5076424;28;20458;-70
2021/12/28 00:18:59;;;;;;;63.60;31.63;;;-1.30;99.90;;;;;;5076641;28;20439;-71
2021/12/28 00:21:30;;;;;;;63.43;31.50;;;-1.40;99.90;;;;;;5077258;28;20469;-71
2021/12/28 00:24:01;;;;;;;68.17;34.70;;;-1.40;99.90;;;;;;5079651;28;20899;-70
2021/12/28 00:26:28;;;;;;;67.33;34.23;;;-1.40;99.90;;;;;;5081101;28;21041;-71
2021/12/28 00:28:54;;;;;;;59.00;32.67;;;-1.40;99.90;;;;;;5079837;28;20599;-70
2021/12/28 00:31:23;;;;;;;63.97;33.57;;;-1.50;99.90;;;;;;5079373;28;20458;-70
2021/12/28 00:33:52;;;;;;;59.60;33.80;;;-1.50;99.90;;;;;;5084505;28;20454;-70
2021/12/28 00:36:19;;;;;;;61.10;33.20;;;-1.50;99.90;;;;;;5081588;28;20458;-70
2021/12/28 00:38:47;;;;;;;63.47;34.10;;;-1.50;99.90;;;;;;5079780;28;20572;-70
2021/12/28 00:41:14;;;;;;;66.17;36.43;;;-1.50;99.90;;;;;;5076288;28;20454;-70
2021/12/28 00:43:41;;;;;;;68.93;34.07;;;-1.60;99.90;;;;;;5076339;28;20791;-70
2021/12/28 00:46:09;;;;;;;65.00;33.63;;;-1.60;99.90;;;;;;5076001;28;20454;-70
2021/12/28 00:48:36;;;;;;;66.23;35.00;;;-1.60;99.90;;;;;;5075322;28;20981;-70
2021/12/28 00:51:04;;;;;;;58.70;33.50;;;-1.60;99.90;;;;;;5075786;28;20465;-70
2021/12/28 00:53:33;;;;;;;65.53;36.83;;;-1.60;99.90;;;;;;5075415;28;20915;-70
2021/12/28 00:56:01;;;;;;;67.00;33.50;;;-1.70;99.90;;;;;;5075281;28;20782;-71
2021/12/28 00:58:28;;;;;;;69.27;33.50;;;-1.60;99.90;;;;;;5075717;28;20454;-70
2021/12/28 01:00:55;;;;;;;68.50;35.13;;;-1.70;99.90;;;;;;5075473;28;20790;-69
2021/12/28 01:03:22;;;;;;;63.73;33.20;;;-1.70;99.90;;;;;;5074953;28;20468;-70
2021/12/28 01:05:49;;;;;;;68.70;34.00;;;-1.70;99.90;;;;;;5074909;28;20502;-71
2021/12/28 01:08:16;;;;;;;57.13;34.63;;;-1.70;99.90;;;;;;5075168;28;20482;-71
2021/12/28 01:10:46;;;;;;;64.97;32.33;;;-1.70;99.90;;;;;;5075575;28;20473;-71
2021/12/28 01:13:16;;;;;;;60.50;33.80;;;-1.70;99.90;;;;;;5075129;28;20965;-70
2021/12/28 01:15:43;;;;;;;69.03;35.20;;;-1.70;99.90;;;;;;5075483;28;20465;-70
2021/12/28 01:18:10;;;;;;;65.70;32.63;;;-1.70;99.90;;;;;;5075554;28;20927;-71
2021/12/28 01:20:37;;;;;;;65.83;33.20;;;-1.70;99.90;;;;;;5075903;28;20520;-71
2021/12/28 01:23:04;;;;;;;59.83;32.97;;;-1.80;99.90;;;;;;5075499;28;20462;-70
2021/12/28 01:25:32;;;;;;;65.40;34.60;;;-1.70;99.90;;;;;;5075517;28;20787;-70
2021/12/28 01:27:59;;;;;;;59.50;32.80;;;-1.70;99.90;;;;;;5075136;28;20497;-70
2021/12/28 01:30:30;;;;;;;65.60;34.80;;;-1.70;99.90;;;;;;5074854;28;20454;-70
2021/12/28 01:33:00;;;;;;;65.00;33.23;;;-1.70;99.90;;;;;;5074999;28;20739;-71
2021/12/28 01:35:30;;;;;;;61.13;32.80;;;-1.80;99.90;;;;;;5074750;28;20453;-70
2021/12/28 01:37:59;;;;;;;64.10;34.20;;;-1.80;99.90;;;;;;5074376;28;20461;-70
2021/12/28 01:40:29;;;;;;;63.80;34.17;;;-1.80;99.90;;;;;;5074932;28;20469;-70
2021/12/28 01:43:02;;;;;;;65.43;34.23;;;-1.80;99.90;;;;;;5074673;28;20462;-71
2021/12/28 01:45:36;;;;;;;61.20;34.60;;;-1.70;99.90;;;;;;5074938;28;20443;-70
2021/12/28 01:48:04;;;;;;;70.63;34.93;;;-1.70;99.90;;;;;;5074354;28;20456;-70
2021/12/28 01:50:30;;;;;;;60.80;33.10;;;-1.70;99.90;;;;;;5074197;28;21024;-70
2021/12/28 01:52:59;;;;;;;62.87;32.60;;;-1.70;99.90;;;;;;5074822;28;20790;-70
2021/12/28 01:55:26;;;;;;;61.97;31.70;;;-1.70;99.90;;;;;;5074779;28;20458;-70
2021/12/28 01:57:55;;;;;;;70.53;36.03;;;-1.80;99.90;;;;;;5074736;28;20469;-70
2021/12/28 02:00:23;;;;;;;74.87;35.77;;;-1.80;99.90;;;;;;5074694;28;20454;-70
2021/12/28 02:02:51;;;;;;;58.17;33.90;;;-1.80;99.90;;;;;;5074729;28;20504;-70
2021/12/28 02:05:17;;;;;;;69.73;34.50;;;-1.70;99.90;;;;;;5074783;28;20469;-70
2021/12/28 02:07:44;;;;;;;69.03;37.23;;;-1.70;99.90;;;;;;5076311;28;20453;-70
2021/12/28 02:10:11;;;;;;;66.03;33.63;;;-1.70;99.90;;;;;;5077478;28;20493;-70
2021/12/28 02:12:38;;;;;;;71.20;37.50;;;-1.70;99.90;;;;;;5075870;28;20466;-70
2021/12/28 02:15:12;;;;;;;64.53;34.63;;;-1.70;99.90;;;;;;5079181;28;20461;-70
2021/12/28 02:17:39;;;;;;;62.33;33.73;;;-1.90;99.90;;;;;;5078877;28;20537;-70
2021/12/28 02:20:11;;;;;;;73.97;36.37;;;-1.90;99.90;;;;;;5079219;28;20822;-70
2021/12/28 02:22:38;;;;;;;88.57;37.70;;;-1.90;99.90;;;;;;5078471;28;20529;-70
2021/12/28 02:25:06;;;;;;;64.07;34.07;;;-1.80;99.90;;;;;;5078477;28;20453;-70
2021/12/28 02:27:35;;;;;;;75.77;34.93;;;-1.80;99.90;;;;;;5078272;28;20597;-70
2021/12/28 02:30:04;;;;;;;70.07;33.70;;;-1.80;99.90;;;;;;5078403;28;20573;-70
2021/12/28 02:32:31;;;;;;;65.07;32.47;;;-1.80;99.90;;;;;;5078125;28;20547;-70
2021/12/28 02:34:58;;;;;;;81.20;36.40;;;-1.90;99.90;;;;;;5078303;28;20462;-70
2021/12/28 02:37:27;;;;;;;74.23;34.63;;;-1.90;99.90;;;;;;5078093;28;20453;-70
2021/12/28 02:39:54;;;;;;;63.27;34.50;;;-1.90;99.90;;;;;;5078194;28;20454;-70
2021/12/28 02:42:23;;;;;;;61.50;35.70;;;-1.90;99.90;;;;;;5078038;28;20458;-70
2021/12/28 02:44:58;;;;;;;70.50;33.40;;;-1.90;99.90;;;;;;5078649;28;20462;-69
2021/12/28 02:47:25;;;;;;;70.47;35.70;;;-1.90;99.90;;;;;;5077888;28;20458;-70
2021/12/28 02:49:52;;;;;;;70.50;34.10;;;-2.00;99.90;;;;;;5077890;28;20606;-70
2021/12/28 02:52:18;;;;;;;62.90;33.27;;;-1.90;99.90;;;;;;5077504;28;20979;-70
2021/12/28 02:54:47;;;;;;;77.90;36.27;;;-2.00;99.90;;;;;;5077952;28;20805;-70
2021/12/28 02:57:13;;;;;;;65.87;36.57;;;-2.00;99.90;;;;;;5078070;28;20453;-70
2021/12/28 02:59:47;;;;;;;75.10;35.90;;;-2.00;99.90;;;;;;5078310;28;20906;-70
2021/12/28 03:02:13;;;;;;;67.97;35.23;;;-1.90;99.90;;;;;;5077534;28;20930;-70
2021/12/28 03:04:40;;;;;;;68.57;35.17;;;-1.90;99.90;;;;;;5078053;28;20473;-70
2021/12/28 03:07:07;;;;;;;71.97;35.27;;;-1.90;99.90;;;;;;5077655;28;20458;-70
2021/12/28 03:09:34;;;;;;;79.83;36.10;;;-2.10;99.90;;;;;;5077204;28;20493;-70
2021/12/28 03:12:02;;;;;;;64.53;36.50;;;-2.10;99.90;;;;;;5077674;28;20465;-70
2021/12/28 03:14:29;;;;;;;63.93;35.90;;;-2.20;99.90;;;;;;5077642;28;20480;-70
2021/12/28 03:16:59;;;;;;;76.60;36.93;;;-2.10;99.90;;;;;;5077645;28;20780;-70
2021/12/28 03:19:28;;;;;;;66.77;35.87;;;-2.10;99.90;;;;;;5078159;28;20477;-70
2021/12/28 03:21:54;;;;;;;66.70;35.90;;;-2.10;99.90;;;;;;5077162;28;20966;-69
2021/12/28 03:24:22;;;;;;;69.17;35.00;;;-2.10;99.90;;;;;;5076609;28;20461;-70
2021/12/28 03:26:49;;;;;;;72.10;35.90;;;-2.20;99.90;;;;;;5077324;28;20821;-71
2021/12/28 03:29:17;;;;;;;77.97;37.07;;;-2.10;99.90;;;;;;5077197;28;20832;-70
2021/12/28 03:31:44;;;;;;;61.90;34.73;;;-2.10;99.90;;;;;;5077144;28;20498;-70
2021/12/28 03:34:13;;;;;;;72.40;36.27;;;-2.20;99.90;;;;;;5077481;28;20465;-70
2021/12/28 03:36:41;;;;;;;74.30;37.73;;;-2.20;99.90;;;;;;5077496;28;20469;-70
2021/12/28 03:39:11;;;;;;;86.43;37.50;;;-2.10;99.90;;;;;;5077707;28;20477;-70
2021/12/28 03:41:39;;;;;;;88.67;37.30;;;-2.20;99.90;;;;;;5078040;28;20459;-70
2021/12/28 03:44:06;;;;;;;76.00;36.27;;;-2.20;99.90;;;;;;5077485;28;20469;-70
2021/12/28 03:46:34;;;;;;;69.67;37.63;;;-2.10;99.90;;;;;;5077249;28;20457;-72
2021/12/28 03:49:02;;;;;;;68.10;35.77;;;-2.10;99.90;;;;;;5077565;28;20458;-70
2021/12/28 03:51:28;;;;;;;76.03;37.57;;;-2.10;99.90;;;;;;5077517;28;20473;-70
2021/12/28 03:53:55;;;;;;;69.40;36.27;;;-2.00;99.90;;;;;;5077100;28;20465;-69
2021/12/28 03:56:24;;;;;;;68.73;38.00;;;-2.00;99.90;;;;;;5077148;28;20469;-69
2021/12/28 03:58:52;;;;;;;73.30;38.43;;;-2.00;99.90;;;;;;5077715;28;20469;-69
2021/12/28 04:01:25;;;;;;;75.33;36.43;;;-2.00;99.90;;;;;;5077740;28;20529;-70
2021/12/28 04:03:57;;;;;;;74.60;37.90;;;-1.90;99.90;;;;;;5077416;28;20442;-70
2021/12/28 04:06:27;;;;;;;70.07;36.77;;;-1.90;99.90;;;;;;5076810;28;20754;-70
2021/12/28 04:08:56;;;;;;;79.10;37.87;;;-2.00;99.90;;;;;;5076621;28;20508;-70
2021/12/28 04:11:29;;;;;;;70.60;36.80;;;-2.00;99.90;;;;;;5076424;28;20527;-70
2021/12/28 04:14:00;;;;;;;85.23;36.47;;;-2.00;99.90;;;;;;5076044;28;20891;-70
2021/12/28 04:16:27;;;;;;;73.23;36.40;;;-2.00;99.90;;;;;;5076547;28;20464;-70
2021/12/28 04:18:56;;;;;;;67.93;35.67;;;-2.00;99.90;;;;;;5076775;28;20465;-70
2021/12/28 04:21:23;;;;;;;62.00;33.40;;;-2.00;99.90;;;;;;5076035;28;20926;-70
2021/12/28 04:23:53;;;;;;;75.03;35.70;;;-1.90;99.90;;;;;;5076412;28;20796;-69
2021/12/28 04:26:21;;;;;;;72.43;36.47;;;-1.90;99.90;;;;;;5076474;28;20486;-69
2021/12/28 04:28:47;;;;;;;65.40;33.80;;;-1.90;99.90;;;;;;5076052;28;20454;-70
2021/12/28 04:31:14;;;;;;;67.67;35.57;;;-1.90;99.90;;;;;;5076624;28;20486;-70
2021/12/28 04:33:41;;;;;;;76.47;37.53;;;-1.80;99.90;;;;;;5075834;28;20988;-70
2021/12/28 04:36:11;;;;;;;74.70;37.67;;;-1.80;99.90;;;;;;5075979;28;20528;-70
2021/12/28 04:38:39;;;;;;;75.07;37.43;;;-1.70;99.90;;;;;;5076373;28;20446;-70
2021/12/28 04:41:06;;;;;;;66.63;36.93;;;-1.70;99.90;;;;;;5076647;28;20450;-69
2021/12/28 04:43:33;;;;;;;80.43;37.00;;;-1.60;99.90;;;;;;5075964;28;20807;-69
2021/12/28 04:46:00;;;;;;;76.47;36.00;;;-1.60;99.90;;;;;;5076077;28;20462;-69
2021/12/28 04:48:27;;;;;;;68.03;35.47;;;-1.50;99.90;;;;;;5075650;28;20462;-70
2021/12/28 04:50:57;;;;;;;73.17;36.13;;;-1.50;99.90;;;;;;5075784;28;20517;-70
2021/12/28 04:53:25;;;;;;;65.90;36.27;;;-1.50;99.90;;;;;;5075929;28;20458;-69
2021/12/28 04:55:52;;;;;;;75.00;34.60;;;-1.60;99.90;;;;;;5075941;28;20458;-70
2021/12/28 04:58:20;;;;;;;75.83;36.07;;;-1.60;99.90;;;;;;5075557;28;20461;-71
2021/12/28 05:00:55;;;;;;;73.13;38.30;;;-1.50;99.90;;;;;;5075504;28;20497;-70
2021/12/28 05:03:22;;;;;;;77.60;35.67;;;-1.50;99.90;;;;;;5076222;28;20533;-70
2021/12/28 05:05:53;;;;;;;67.53;35.30;;;-1.60;99.90;;;;;;5075317;28;20523;-70
2021/12/28 05:08:21;;;;;;;69.87;34.30;;;-1.60;99.90;;;;;;5075328;28;20459;-70
2021/12/28 05:10:51;;;;;;;70.90;36.47;;;-1.60;99.90;;;;;;5075255;28;20544;-70
2021/12/28 05:13:19;;;;;;;75.37;37.13;;;-1.60;99.90;;;;;;5075517;28;20454;-70
2021/12/28 05:15:49;;;;;;;64.67;35.87;;;-1.60;99.90;;;;;;5074971;28;20468;-70
2021/12/28 05:18:16;;;;;;;81.03;37.93;;;-1.60;99.90;;;;;;5075181;28;20535;-69
2021/12/28 05:20:43;;;;;;;70.80;36.73;;;-1.50;99.90;;;;;;5075477;28;20466;-71
2021/12/28 05:23:11;;;;;;;67.50;37.03;;;-1.50;99.90;;;;;;5075265;28;20976;-70
2021/12/28 05:25:38;;;;;;;69.07;36.90;;;-1.50;99.90;;;;;;5075358;28;20466;-70
2021/12/28 05:28:07;;;;;;;68.13;37.10;;;-1.50;99.90;;;;;;5076998;28;20551;-70
2021/12/28 05:30:35;;;;;;;76.57;37.53;;;-1.50;99.90;;;;;;5076824;28;20481;-72
2021/12/28 05:33:01;;;;;;;70.20;36.97;;;-1.50;99.90;;;;;;5075298;28;20454;-70
2021/12/28 05:35:28;;;;;;;75.23;35.03;;;-1.50;99.90;;;;;;5074935;28;20458;-70
2021/12/28 05:37:55;;;;;;;74.43;35.60;;;-1.50;99.90;;;;;;5075172;28;20470;-70
2021/12/28 05:40:24;;;;;;;74.03;36.50;;;-1.50;99.90;;;;;;5074830;28;20465;-70
2021/12/28 05:42:54;;;;;;;78.43;36.03;;;-1.50;99.90;;;;;;5074972;28;20454;-70
2021/12/28 05:45:22;;;;;;;69.80;36.47;;;-1.40;99.90;;;;;;5074861;28;20458;-71
2021/12/28 05:47:49;;;;;;;84.90;38.77;;;-1.40;99.90;;;;;;5074320;28;20458;-70
2021/12/28 05:50:15;;;;;;;81.17;35.80;;;-1.30;99.90;;;;;;5074276;28;20485;-71
2021/12/28 05:52:42;;;;;;;74.20;37.93;;;-1.30;99.90;;;;;;5074741;28;20894;-71
2021/12/28 05:55:10;;;;;;;72.63;37.70;;;-1.30;99.90;;;;;;5074829;28;20458;-70
2021/12/28 05:57:36;;;;;;;72.30;36.97;;;-1.20;99.90;;;;;;5074883;28;20527;-71
2021/12/28 06:00:05;;;;;;;66.13;36.10;;;-1.20;99.90;;;;;;5074668;28;20935;-71
2021/12/28 06:02:33;;;;;;;71.27;38.13;;;-1.30;99.90;;;;;;5074880;28;20466;-70
2021/12/28 06:04:59;;;;;;;74.77;38.53;;;-1.20;99.90;;;;;;5074775;28;20920;-70
2021/12/28 06:07:27;;;;;;;74.73;35.03;;;-1.20;99.90;;;;;;5074803;28;20462;-70
2021/12/28 06:09:56;;;;;;;72.53;34.77;;;-1.20;99.90;;;;;;5074955;28;20809;-70
2021/12/28 06:12:25;;;;;;;71.97;36.10;;;-1.20;99.90;;;;;;5075138;28;20968;-69
2021/12/28 06:14:53;;;;;;;81.53;37.10;;;-1.20;99.90;;;;;;5076557;28;20454;-71
2021/12/28 06:17:20;;;;;;;81.27;36.70;;;-1.20;99.90;;;;;;5076436;28;20461;-71
2021/12/28 06:19:48;;;;;;;71.47;36.03;;;-1.30;99.90;;;;;;5076883;28;20459;-71
2021/12/28 06:22:15;;;;;;;91.40;39.47;;;-1.30;99.90;;;;;;5076768;28;20516;-71
2021/12/28 06:24:42;;;;;;;82.53;38.30;;;-1.30;99.90;;;;;;5077230;28;20461;-71
2021/12/28 06:27:09;;;;;;;74.10;38.50;;;-1.20;99.90;;;;;;5074719;28;20474;-69
2021/12/28 06:29:40;;;;;;;82.63;36.57;;;-1.20;99.90;;;;;;5074473;28;20915;-69
2021/12/28 06:32:07;;;;;;;74.60;38.03;;;-1.20;99.90;;;;;;5074541;28;20435;-70
2021/12/28 06:34:34;;;;;;;59.87;34.00;;;-1.10;99.90;;;;;;5074164;28;20462;-70
2021/12/28 06:37:02;;;;;;;64.80;35.77;;;-1.20;99.90;;;;;;5074545;28;20458;-70
2021/12/28 06:39:29;;;;;;;75.67;37.03;;;-1.20;99.90;;;;;;5074158;28;20450;-70
2021/12/28 06:41:56;;;;;;;77.77;36.90;;;-1.30;99.90;;;;;;5074336;28;20868;-70
2021/12/28 06:44:23;;;;;;;69.00;37.73;;;-1.20;99.90;;;;;;5073919;28;20976;-70
2021/12/28 06:46:49;;;;;;;76.47;38.60;;;-1.30;99.90;;;;;;5074125;28;20455;-70
2021/12/28 06:49:16;;;;;;;77.77;36.00;;;-1.30;99.90;;;;;;5073970;28;20454;-70
2021/12/28 06:51:43;;;;;;;83.40;38.17;;;-1.40;99.90;;;;;;5074440;28;20474;-70
2021/12/28 06:54:11;;;;;;;76.43;39.97;;;-1.30;99.90;;;;;;5074442;28;20783;-70
2021/12/28 06:56:41;;;;;;;77.03;40.33;;;-1.30;99.90;;;;;;5074384;28;20458;-71
2021/12/28 06:59:07;;;;;;;80.67;40.27;;;-1.30;99.90;;;;;;5075732;28;20453;-70
2021/12/28 07:01:36;;;;;;;76.80;37.30;;;-1.20;99.90;;;;;;5077908;28;20450;-70
2021/12/28 07:04:03;;;;;;;69.87;33.83;;;-1.20;99.90;;;;;;5077779;28;20458;-70
2021/12/28 07:06:30;;;;;;;72.27;36.67;;;-1.20;99.90;;;;;;5077916;28;20458;-70
2021/12/28 07:08:57;;;;;;;70.20;35.17;;;-1.10;99.90;;;;;;5077855;28;20458;-71
2021/12/28 07:11:25;;;;;;;77.73;36.83;;;-1.10;99.90;;;;;;5077517;28;20477;-70
2021/12/28 07:13:53;;;;;;;73.50;37.33;;;-1.00;99.90;;;;;;5078306;28;20461;-70
2021/12/28 07:16:20;;;;;;;66.87;37.70;;;-1.00;99.90;;;;;;5077648;28;20545;-70
2021/12/28 07:18:46;;;;;;;66.40;35.50;;;-1.00;99.90;;;;;;5077719;28;20465;-70
2021/12/28 07:21:13;;;;;;;70.97;36.70;;;-0.90;99.90;;;;;;5077299;28;20462;-70
2021/12/28 07:23:40;;;;;;;67.33;36.47;;;-0.90;99.90;;;;;;5077562;28;20785;-71
2021/12/28 07:26:06;;;;;;;80.67;39.23;;;-0.90;99.90;;;;;;5077220;28;20461;-70
2021/12/28 07:28:35;;;;;;;72.00;36.50;;;-0.90;99.90;;;;;;5077302;28;20453;-70
2021/12/28 07:31:01;;;;;;;81.50;39.57;;;-0.90;99.90;;;;;;5076916;28;20988;-70
2021/12/28 07:33:28;;;;;;;73.07;36.13;;;-0.90;99.90;;;;;;5077415;28;20462;-70
2021/12/28 07:35:58;;;;;;;78.00;37.90;;;-0.80;99.90;;;;;;5077050;28;20465;-70
2021/12/28 07:38:24;;;;;;;66.83;35.30;;;-0.90;99.90;;;;;;5076934;28;20792;-71
2021/12/28 07:40:51;;;;;;;74.27;36.53;;;-0.80;99.90;;;;;;5076867;28;20454;-71
2021/12/28 07:43:18;;;;;;;71.03;35.60;;;-0.80;99.90;;;;;;5077021;28;20822;-68
2021/12/28 07:45:46;;;;;;;71.47;36.13;;;-0.80;99.90;;;;;;5077117;28;20468;-70
2021/12/28 07:48:13;;;;;;;71.97;36.97;;;-0.80;99.90;;;;;;5076929;28;20489;-70
2021/12/28 07:50:40;;;;;;;79.10;37.93;;;-0.70;99.90;;;;;;5077269;28;20475;-70
2021/12/28 07:53:07;;;;;;;73.00;36.80;;;-0.60;99.90;;;;;;5076812;28;20933;-69
2021/12/28 07:55:33;;;;;;;70.33;36.20;;;-0.60;99.90;;;;;;5077398;28;20454;-70
2021/12/28 07:58:00;;;;;;;70.27;37.10;;;-0.60;99.90;;;;;;5077603;28;20458;-71
2021/12/28 08:00:28;;;;;;;73.27;38.07;;;-0.60;99.90;;;;;;5078739;28;20450;-71
2021/12/28 08:03:00;;;;;;;72.70;34.97;;;-0.60;99.90;;;;;;5081671;28;20865;-71
2021/12/28 08:05:27;;;;;;;80.23;37.23;;;-0.60;99.90;;;;;;5082883;28;20441;-71
2021/12/28 08:07:54;;;;;;;69.47;35.30;;;-0.60;99.90;;;;;;5080142;28;20930;-71
2021/12/28 08:10:21;;;;;;;68.40;37.67;;;-0.50;99.90;;;;;;5077140;28;20485;-71
2021/12/28 08:12:48;;;;;;;75.40;38.43;;;-0.50;99.90;;;;;;5078637;28;20544;-71
2021/12/28 08:15:16;;;;;;;79.20;35.60;;;-0.50;99.90;;;;;;5078562;28;20696;-70
2021/12/28 08:17:43;;;;;;;72.67;37.17;;;-0.40;99.90;;;;;;5077513;28;20486;-72
2021/12/28 08:20:13;;;;;;;62.67;34.80;;;-0.40;99.90;;;;;;5077853;28;20462;-70
2021/12/28 08:22:41;;;;;;;76.40;39.50;;;-0.40;99.90;;;;;;5077883;28;20442;-69
2021/12/28 08:25:09;;;;;;;69.53;35.03;;;-0.30;99.90;;;;;;5078031;28;20462;-71
2021/12/28 08:27:36;;;;;;;64.50;36.10;;;-0.30;99.90;;;;;;5079446;28;20486;-71
2021/12/28 08:30:05;;;;;;;69.00;36.07;;;-0.30;99.90;;;;;;5081919;28;20453;-71
2021/12/28 08:32:32;;;;;;;69.97;36.07;;;-0.30;99.90;;;;;;5081146;28;20474;-71
2021/12/28 08:34:59;;;;;;;71.07;36.77;;;-0.30;99.90;;;;;;5082034;28;20527;-71
2021/12/28 08:37:27;;;;;;;87.13;42.37;;;-0.20;99.90;;;;;;5082719;28;20918;-72
2021/12/28 08:39:54;;;;;;;76.63;36.93;;;-0.20;99.90;;;;;;5080253;28;20496;-72
2021/12/28 08:42:22;;;;;;;69.40;35.27;;;-0.20;99.90;;;;;;5077785;28;20455;-71
2021/12/28 08:44:48;;;;;;;67.60;35.87;;;-0.20;99.90;;;;;;5076872;28;20476;-73
2021/12/28 08:47:15;;;;;;;63.43;34.27;;;-0.10;99.90;;;;;;5076266;28;20536;-71
2021/12/28 08:49:42;;;;;;;63.50;33.90;;;0.00;99.90;;;;;;5075938;28;20477;-71
2021/12/28 08:52:09;;;;;;;67.60;37.80;;;0.00;99.90;;;;;;5076013;28;20488;-70
2021/12/28 08:54:37;;;;;;;86.20;37.43;;;0.10;99.90;;;;;;5075634;28;20466;-70
2021/12/28 08:57:06;;;;;;;71.20;35.13;;;0.10;99.90;;;;;;5075464;28;20535;-72
2021/12/28 08:59:32;;;;;;;77.73;37.90;;;0.10;99.90;;;;;;5075405;28;20458;-71
2021/12/28 09:02:00;;;;;;;69.13;36.50;;;0.20;99.90;;;;;;5075569;28;20898;-70
2021/12/28 09:04:27;;;;;;;73.70;37.77;;;0.20;99.90;;;;;;5075694;28;20797;-71
2021/12/28 09:06:53;;;;;;;70.80;37.30;;;0.30;99.90;;;;;;5075155;28;20818;-71
2021/12/28 09:09:20;;;;;;;71.10;36.63;;;0.30;99.90;;;;;;5075409;28;20545;-71
2021/12/28 09:11:50;;;;;;;72.17;33.57;;;0.40;99.90;;;;;;5075359;28;20489;-70
2021/12/28 09:14:17;;;;;;;66.20;35.03;;;0.40;99.90;;;;;;5075043;28;20917;-71
2021/12/28 09:16:43;;;;;;;66.33;34.10;;;0.40;99.90;;;;;;5075163;28;20785;-70
2021/12/28 09:19:10;;;;;;;81.97;35.60;;;0.40;99.90;;;;;;5075251;28;20781;-70
2021/12/28 09:21:37;;;;;;;68.33;34.73;;;0.40;99.90;;;;;;5075001;28;20450;-70
2021/12/28 09:24:07;;;;;;;65.87;35.30;;;0.40;99.90;;;;;;5074517;28;20458;-71
2021/12/28 09:26:34;;;;;;;68.33;35.87;;;0.40;99.90;;;;;;5074727;28;20486;-70
2021/12/28 09:29:03;;;;;;;71.97;36.27;;;0.50;99.90;;;;;;5076076;28;20483;-70
2021/12/28 09:31:29;;;;;;;70.60;34.40;;;0.50;99.90;;;;;;5076025;28;20481;-70
2021/12/28 09:34:02;;;;;;;74.67;37.60;;;0.60;99.90;;;;;;5078059;28;20469;-71
2021/12/28 09:36:29;;;;;;;70.53;35.70;;;0.50;99.90;;;;;;5079394;28;20524;-68
2021/12/28 09:38:56;;;;;;;75.70;36.30;;;0.50;99.90;;;;;;5074641;28;20457;-69
2021/12/28 09:41:23;;;;;;;65.67;33.50;;;0.60;99.90;;;;;;5074760;28;20579;-69
2021/12/28 09:43:50;;;;;;;64.00;35.80;;;0.60;99.90;;;;;;5075115;28;20891;-69
2021/12/28 09:46:19;;;;;;;63.20;34.17;;;0.60;99.90;;;;;;5075702;28;20765;-69
2021/12/28 09:48:46;;;;;;;72.47;35.90;;;0.60;99.90;;;;;;5075963;28;20527;-70
2021/12/28 09:51:13;;;;;;;61.67;35.80;;;0.60;99.90;;;;;;5075244;28;20489;-69
2021/12/28 09:53:39;;;;;;;71.53;38.00;;;0.50;99.90;;;;;;5075316;28;20462;-70
2021/12/28 09:56:07;;;;;;;71.07;35.17;;;0.50;99.90;;;;;;5075216;28;20539;-70
2021/12/28 09:58:35;;;;;;;65.03;34.00;;;0.50;99.90;;;;;;5080447;28;20458;-71
2021/12/28 10:01:02;;;;;;;66.77;34.27;;;0.60;99.90;;;;;;5079445;28;20454;-70
2021/12/28 10:03:30;;;;;;;69.80;36.80;;;0.50;99.90;;;;;;5079753;28;20461;-70
2021/12/28 10:05:58;;;;;;;64.83;33.80;;;0.60;99.90;;;;;;5080036;28;20450;-71
2021/12/28 10:08:27;;;;;;;67.13;35.70;;;0.50;99.90;;;;;;5079247;28;20485;-71
2021/12/28 10:10:57;;;;;;;88.47;38.83;;;0.50;99.90;;;;;;5075878;28;20454;-71
2021/12/28 10:13:26;;;;;;;69.90;35.60;;;0.50;99.90;;;;;;5075902;28;20450;-70
2021/12/28 10:15:54;;;;;;;76.07;37.60;;;0.50;99.90;;;;;;5074783;28;20489;-69
2021/12/28 10:18:21;;;;;;;71.00;34.50;;;0.50;99.90;;;;;;5074782;28;20511;-69
2021/12/28 10:20:51;;;;;;;65.60;33.40;;;0.60;99.90;;;;;;5075084;28;20469;-72
2021/12/28 10:23:20;;;;;;;71.80;35.30;;;0.70;99.90;;;;;;5074913;28;20769;-70
2021/12/28 10:25:50;;;;;;;68.30;33.23;;;0.80;99.90;;;;;;5074037;28;20458;-69
2021/12/28 10:28:19;;;;;;;73.97;36.43;;;0.80;99.90;;;;;;5074613;28;20457;-69
2021/12/28 10:30:48;;;;;;;75.70;36.80;;;0.90;99.90;;;;;;5074432;28;20887;-71
2021/12/28 10:33:18;;;;;;;67.53;34.70;;;0.90;99.90;;;;;;5075120;28;20496;-71
2021/12/28 10:35:47;;;;;;;68.93;35.20;;;0.80;99.90;;;;;;5078221;28;20458;-69
2021/12/28 10:38:18;;;;;;;78.73;37.83;;;0.80;99.90;;;;;;5078085;28;20469;-71
2021/12/28 10:40:47;;;;;;;77.67;36.67;;;0.90;99.90;;;;;;5077947;28;20446;-70
2021/12/28 10:43:17;;;;;;;71.07;36.20;;;1.00;99.90;;;;;;5078021;28;20918;-70
2021/12/28 10:45:45;;;;;;;72.77;36.10;;;1.00;99.90;;;;;;5078204;28;20462;-71
2021/12/28 10:48:15;;;;;;;68.67;34.57;;;1.10;99.90;;;;;;5077978;28;20454;-71
2021/12/28 10:50:45;;;;;;;67.23;36.40;;;1.20;99.90;;;;;;5077916;28;20454;-69
2021/12/28 10:53:21;;;;;;;65.37;36.80;;;1.30;99.90;;;;;;5077794;28;20478;-70
2021/12/28 10:55:52;;;;;;;65.73;36.03;;;1.30;99.90;;;;;;5078930;28;20448;-70
2021/12/28 10:58:31;;;;;;;65.33;35.00;;;1.40;99.90;;;;;;5079980;28;20517;-69
2021/12/28 11:01:05;;;;;;;64.73;34.17;;;1.50;99.90;;;;;;5078281;28;20449;-70
2021/12/28 11:03:35;;;;;;;76.57;39.30;;;1.60;99.90;;;;;;5077692;28;20453;-68
2021/12/28 11:06:10;;;;;;;70.70;35.67;;;1.70;99.90;;;;;;5078058;28;20464;-71
2021/12/28 11:08:38;;;;;;;65.87;32.60;;;1.80;99.90;;;;;;5077853;28;20453;-69
2021/12/28 11:11:08;;;;;;;61.60;35.23;;;1.90;99.90;;;;;;5077710;28;20465;-71
2021/12/28 11:13:35;;;;;;;59.40;33.00;;;1.90;99.90;;;;;;5077880;28;20454;-71
2021/12/28 11:16:04;;;;;;;60.93;32.70;;;2.00;99.90;;;;;;5076872;28;20906;-70
2021/12/28 11:18:34;;;;;;;69.23;32.80;;;2.10;99.90;;;;;;5077220;28;20465;-70
2021/12/28 11:21:11;;;;;;;63.03;33.03;;;2.10;99.90;;;;;;5077795;28;20556;-70
2021/12/28 11:23:41;;;;;;;62.20;32.90;;;2.10;99.90;;;;;;5077352;28;20478;-71
2021/12/28 11:26:15;;;;;;;63.93;31.70;;;2.10;99.90;;;;;;5077195;28;20497;-69
2021/12/28 11:28:50;;;;;;;61.40;33.30;;;2.10;99.90;;;;;;5077552;28;20533;-72
2021/12/28 11:31:19;;;;;;;63.33;35.03;;;2.10;99.90;;;;;;5077275;28;20794;-71
2021/12/28 11:33:53;;;;;;;62.03;32.00;;;2.10;99.90;;;;;;5077091;28;20462;-69
2021/12/28 11:36:22;;;;;;;61.63;34.60;;;2.10;99.90;;;;;;5077824;28;20443;-69
2021/12/28 11:38:52;;;;;;;66.77;33.63;;;2.10;99.90;;;;;;5076779;28;20882;-69
2021/12/28 11:41:19;;;;;;;58.90;31.60;;;2.10;99.90;;;;;;5076736;28;20907;-70
2021/12/28 11:43:46;;;;;;;66.23;31.90;;;2.10;99.90;;;;;;5076830;28;20833;-69
2021/12/28 11:46:14;;;;;;;59.57;32.63;;;2.10;99.90;;;;;;5075851;28;20523;-69
2021/12/28 11:48:42;;;;;;;62.53;30.80;;;2.10;99.90;;;;;;5077049;28;20792;-69
2021/12/28 11:51:09;;;;;;;64.00;32.93;;;2.20;99.90;;;;;;5076945;28;20458;-70
2021/12/28 11:53:39;;;;;;;56.00;31.13;;;2.20;99.90;;;;;;5076579;28;20501;-70
2021/12/28 11:56:10;;;;;;;64.20;33.50;;;2.20;99.90;;;;;;5076837;28;20542;-69
2021/12/28 11:58:51;;;;;;;57.23;30.37;;;2.20;99.90;;;;;;5078784;28;20457;-71
2021/12/28 12:01:47;;;;;;;64.20;32.20;;;2.20;99.90;;;;;;5077282;28;20457;-71
2021/12/28 12:04:52;;;;;;;59.40;31.03;;;2.20;99.90;;;;;;5077080;28;20765;-71
2021/12/28 12:07:30;;;;;;;52.33;30.40;;;2.20;99.90;;;;;;5076789;28;20831;-70
2021/12/28 12:10:15;;;;;;;57.63;30.73;;;2.30;99.90;;;;;;5076998;28;20917;-71
2021/12/28 12:12:49;;;;;;;56.10;30.40;;;2.40;99.90;;;;;;5075992;28;20541;-71
2021/12/28 12:15:18;;;;;;;56.87;32.40;;;2.30;99.90;;;;;;5076522;28;20503;-71
2021/12/28 12:17:47;;;;;;;61.97;33.60;;;2.30;99.90;;;;;;5076602;28;20524;-70
2021/12/28 12:20:27;;;;;;;62.13;33.47;;;2.40;99.90;;;;;;5076725;28;20454;-71
2021/12/28 12:22:58;;;;;;;54.33;30.27;;;2.40;99.90;;;;;;5076105;28;20856;-71
2021/12/28 12:25:31;;;;;;;53.40;28.37;;;2.50;99.90;;;;;;5076403;28;20442;-70
2021/12/28 12:28:01;;;;;;;50.37;27.80;;;2.50;99.90;;;;;;5075738;28;20482;-71
2021/12/28 12:30:50;;;;;;;54.70;30.43;;;2.60;99.90;;;;;;5076142;28;20802;-70
2021/12/28 12:33:18;;;;;;;50.30;28.43;;;2.60;99.90;;;;;;5071104;28;20489;-72
2021/12/28 12:35:51;;;;;;;58.43;29.67;;;2.60;99.90;;;;;;5076300;28;20762;-73
2021/12/28 12:38:38;;;;;;;56.87;30.43;;;2.60;99.90;;;;;;5076794;28;20438;-71